Time,TemperatureF,DewpointF,PressureIn,WindDirection,WindDirectionDegrees,WindSpeedMPH,WindSpeedGustMPH,Humidity,HourlyPrecipIn,Conditions,Clouds,dailyrainin,SoftwareType,DateUTC
2013-03-24 00:00:00,68.1,65.4,29.83,ESE,112,2.0,8.0,91,0.00,,---,0.00,VWS V14.01,2013-03-24 04:00:00,
2013-03-24 00:30:00,68.0,65.3,29.81,ESE,112,3.0,9.0,91,0.00,,---,0.00,VWS V14.01,2013-03-24 04:30:00,
2013-03-24 01:00:00,68.3,65.6,29.80,ESE,112,5.0,13.0,91,0.00,,---,0.00,VWS V14.01,2013-03-24 05:00:00,
2013-03-24 01:30:00,68.7,66.0,29.79,SE,135,5.0,12.0,91,0.00,,---,0.00,VWS V14.01,2013-03-24 05:30:00,
2013-03-24 02:00:00,68.9,66.2,29.78,SE,135,5.0,12.0,91,0.00,,---,0.00,VWS V14.01,2013-03-24 06:00:00,
2013-03-24 02:30:00,68.8,66.7,29.77,ESE,112,4.0,10.0,93,0.00,,---,0.00,VWS V14.01,2013-03-24 06:30:00,
2013-03-24 03:00:00,68.8,67.0,29.75,SE,135,3.0,9.0,94,0.00,,---,0.00,VWS V14.01,2013-03-24 07:00:00,
2013-03-24 03:30:00,68.8,67.0,29.74,SSE,158,3.0,9.0,94,0.00,,---,0.00,VWS V14.01,2013-03-24 07:30:00,
2013-03-24 04:00:00,68.5,67.0,29.72,SSE,158,2.0,7.0,95,0.00,,---,0.00,VWS V14.01,2013-03-24 08:00:00,
2013-03-24 04:30:00,68.2,67.0,29.70,South,180,2.0,7.0,96,0.00,,---,0.00,VWS V14.01,2013-03-24 08:30:00,
2013-03-24 05:00:00,68.2,67.3,29.70,South,180,3.0,8.0,97,0.00,,---,0.00,VWS V14.01,2013-03-24 09:00:00,
2013-03-24 05:30:00,68.2,67.6,29.69,SSE,158,1.0,7.0,98,0.00,,---,0.00,VWS V14.01,2013-03-24 09:30:00,
2013-03-24 06:00:00,68.8,68.2,29.68,South,180,3.0,7.0,98,0.00,,---,0.00,VWS V14.01,2013-03-24 10:00:00,
2013-03-24 06:30:00,69.2,68.6,29.66,South,180,3.0,8.0,98,0.00,,---,0.00,VWS V14.01,2013-03-24 10:30:00,
2013-03-24 07:00:00,69.5,68.9,29.66,South,180,3.0,8.0,98,0.00,,---,0.00,VWS V14.01,2013-03-24 11:00:00,
2013-03-24 07:30:00,70.2,69.0,29.66,South,180,2.0,7.0,96,0.00,,---,0.00,VWS V14.01,2013-03-24 11:30:00,
2013-03-24 08:00:00,71.3,69.8,29.66,SSW,202,3.0,9.0,95,0.00,,---,0.00,VWS V14.01,2013-03-24 12:00:00,
2013-03-24 08:30:00,71.7,69.9,29.68,SSW,202,2.0,11.0,94,0.00,,---,0.00,VWS V14.01,2013-03-24 12:30:00,
2013-03-24 09:00:00,72.5,70.4,29.69,SW,225,2.0,8.0,93,0.00,,---,0.00,VWS V14.01,2013-03-24 13:00:00,
2013-03-24 09:30:00,74.3,70.8,29.69,WSW,248,4.0,13.0,89,0.00,,---,0.00,VWS V14.01,2013-03-24 13:30:00,
2013-03-24 10:00:00,75.5,71.7,29.68,WSW,248,5.0,21.0,88,0.00,,---,0.00,VWS V14.01,2013-03-24 14:00:00,
2013-03-24 10:30:00,76.4,71.6,29.68,WSW,248,6.0,17.0,85,0.00,,---,0.00,VWS V14.01,2013-03-24 14:30:00,
2013-03-24 11:00:00,77.9,71.6,29.65,SW,225,7.0,20.0,81,0.00,,---,0.00,VWS V14.01,2013-03-24 15:00:00,
2013-03-24 11:30:00,78.8,72.8,29.66,WSW,248,8.0,22.0,82,0.00,,---,0.00,VWS V14.01,2013-03-24 15:30:00,
2013-03-24 12:00:00,78.7,71.6,29.67,WSW,248,9.0,27.0,79,0.00,,---,0.00,VWS V14.01,2013-03-24 16:00:00,
2013-03-24 12:30:00,79.3,73.7,29.67,WSW,248,9.0,24.0,83,0.00,,---,0.00,VWS V14.01,2013-03-24 16:30:00,
2013-03-24 13:00:00,76.6,74.1,29.66,WSW,248,6.0,18.0,92,0.03,,---,0.03,VWS V14.01,2013-03-24 17:00:00,
2013-03-24 13:30:00,76.2,73.7,29.64,WSW,248,5.0,15.0,92,0.05,,---,0.05,VWS V14.01,2013-03-24 17:30:00,
2013-03-24 14:00:00,75.0,73.5,29.65,WSW,248,4.0,11.0,95,0.07,,---,0.07,VWS V14.01,2013-03-24 18:00:00,
2013-03-24 14:30:00,74.0,72.8,29.61,WSW,248,5.0,15.0,96,0.05,,---,0.08,VWS V14.01,2013-03-24 18:30:00,
2013-03-24 15:00:00,74.2,72.4,29.61,WSW,248,5.0,14.0,94,0.03,,---,0.08,VWS V14.01,2013-03-24 19:00:00,
2013-03-24 15:30:00,73.9,69.8,29.62,WSW,248,7.0,18.0,87,0.01,,---,0.08,VWS V14.01,2013-03-24 19:30:00,
2013-03-24 16:00:00,74.8,69.3,29.62,West,270,8.0,17.0,83,0.00,,---,0.08,VWS V14.01,2013-03-24 20:00:00,
2013-03-24 16:30:00,76.3,71.5,29.61,West,270,7.0,16.0,85,0.00,,---,0.08,VWS V14.01,2013-03-24 20:30:00,
2013-03-24 17:00:00,75.9,71.8,29.61,West,270,7.0,17.0,87,0.00,,---,0.08,VWS V14.01,2013-03-24 21:00:00,
2013-03-24 17:30:00,76.7,71.9,29.60,West,270,6.0,14.0,85,0.00,,---,0.08,VWS V14.01,2013-03-24 21:30:00,
2013-03-24 18:00:00,77.6,72.4,29.60,West,270,7.0,18.0,84,0.00,,---,0.08,VWS V14.01,2013-03-24 22:00:00,
2013-03-24 18:30:00,77.2,71.6,29.61,West,270,8.0,18.0,83,0.00,,---,0.08,VWS V14.01,2013-03-24 22:30:00,
2013-03-24 19:00:00,76.5,70.6,29.61,West,270,7.0,16.0,82,0.00,,---,0.08,VWS V14.01,2013-03-24 23:00:00,
2013-03-24 19:30:00,75.4,69.5,29.63,West,270,8.0,18.0,82,0.00,,---,0.08,VWS V14.01,2013-03-24 23:30:00,
2013-03-24 20:00:00,74.4,69.3,29.64,West,270,7.0,15.0,84,0.00,,---,0.08,VWS V14.01,2013-03-25 00:00:00,
2013-03-24 20:30:00,73.3,68.5,29.66,West,270,8.0,18.0,85,0.00,,---,0.08,VWS V14.01,2013-03-25 00:30:00,
2013-03-24 21:00:00,72.7,68.3,29.66,West,270,6.0,14.0,86,0.00,,---,0.08,VWS V14.01,2013-03-25 01:00:00,
2013-03-24 21:30:00,71.6,67.5,29.67,WNW,292,7.0,14.0,87,0.00,,---,0.08,VWS V14.01,2013-03-25 01:30:00,
2013-03-24 22:00:00,70.2,66.5,29.68,West,270,6.0,15.0,88,0.00,,---,0.08,VWS V14.01,2013-03-25 02:00:00,
2013-03-24 22:30:00,69.2,66.2,29.69,West,270,3.0,10.0,90,0.00,,---,0.08,VWS V14.01,2013-03-25 02:30:00,
2013-03-24 23:00:00,68.3,65.9,29.69,West,270,3.0,8.0,92,0.00,,---,0.08,VWS V14.01,2013-03-25 03:00:00,
2013-03-24 23:30:00,67.1,65.0,29.69,WSW,248,3.0,8.0,93,0.00,,---,0.08,VWS V14.01,2013-03-25 03:30:00,